Time;durP1;ratioP1;P1;durP2;ratioP2;P2;SDS_P1;SDS_P2;PMS_P1;PMS_P2;Temp;Humidity;BMP_temperature;BMP_pressure;BME280_temperature;BME280_humidity;BME280_pressure;Samples;Min_cycle;Max_cycle;Signal;HPM_P1;HPM_P2
2022/09/24 05:40:49;;;;;;;;;;;20.80;86.60;;;;;;5996300;22;19925;-77
2022/09/24 05:43:16;;;;;;;;;;;20.80;86.60;;;;;;5037313;28;19925;-77
2022/09/24 05:45:44;;;;;;;;;;;20.70;86.60;;;;;;5037360;28;19924;-76
2022/09/24 05:48:11;;;;;;;;;;;20.70;86.70;;;;;;5037332;28;19925;-76
2022/09/24 05:50:38;;;;;;;;;;;20.80;86.80;;;;;;5037238;28;19932;-76
2022/09/24 05:53:05;;;;;;;;;;;20.80;86.80;;;;;;5037257;28;19968;-75
2022/09/24 05:55:32;;;;;;;;;;;20.80;86.90;;;;;;5060445;23;20019;-75
2022/09/24 05:58:03;;;;;;;;;;;20.80;86.90;;;;;;5037151;28;19929;-75
2022/09/24 06:00:30;;;;;;;;;;;20.80;86.90;;;;;;5036817;28;20364;-74
2022/09/24 06:03:01;;;;;;;;;;;20.80;87.10;;;;;;5036766;28;19936;-74
2022/09/24 06:05:28;;;;;;;;;;;20.80;87.30;;;;;;5036961;28;19948;-74
2022/09/24 06:07:55;;;;;;;;;;;20.80;87.30;;;;;;5036968;28;19925;-74
2022/09/24 06:10:21;;;;;;;;;;;20.80;87.40;;;;;;5036904;28;19926;-74
2022/09/24 06:12:49;;;;;;;;;;;20.80;87.50;;;;;;5036523;28;20015;-75
2022/09/24 06:15:17;;;;;;;;;;;20.80;87.60;;;;;;5036704;28;19931;-75
2022/09/24 06:17:44;;;;;;;;;;;20.80;87.70;;;;;;5036762;28;19932;-75
2022/09/24 06:20:11;;;;;;;;;;;20.80;87.80;;;;;;5036622;28;19925;-74
2022/09/24 06:22:37;;;;;;;;;;;20.80;87.90;;;;;;5036613;28;20359;-74
2022/09/24 06:25:04;;;;;;;;;;;20.80;88.00;;;;;;5036310;28;20435;-74
2022/09/24 06:27:31;;;;;;;;;;;20.80;88.10;;;;;;5036799;28;19925;-74
2022/09/24 06:29:58;;;;;;;;;;;20.80;88.20;;;;;;5036587;28;20012;-74
2022/09/24 06:32:26;;;;;;;;;;;20.80;88.30;;;;;;5036764;28;19947;-74
2022/09/24 06:34:53;;;;;;;;;;;20.80;88.50;;;;;;5037050;28;19925;-74
2022/09/24 06:37:19;;;;;;;;;;;20.80;88.70;;;;;;5036414;28;19925;-74
2022/09/24 06:39:46;;;;;;;;;;;20.80;88.90;;;;;;5036196;28;20356;-75
2022/09/24 06:42:13;;;;;;;;;;;20.80;89.10;;;;;;5036012;28;20392;-75
2022/09/24 06:44:41;;;;;;;;;;;20.80;89.10;;;;;;5036316;28;19932;-73
2022/09/24 06:47:07;;;;;;;;;;;20.80;89.10;;;;;;5035863;28;20387;-74
2022/09/24 06:49:36;;;;;;;;;;;20.80;89.10;;;;;;5035849;28;20396;-74
2022/09/24 06:52:03;;;;;;;;;;;20.80;89.20;;;;;;5036147;28;19932;-74
2022/09/24 06:54:29;;;;;;;;;;;20.80;89.30;;;;;;5036136;28;19925;-75
2022/09/24 06:56:56;;;;;;;;;;;20.80;89.30;;;;;;5035530;28;20036;-74
2022/09/24 06:59:23;;;;;;;;;;;20.80;89.30;;;;;;5035798;28;20403;-74
2022/09/24 07:01:49;;;;;;;;;;;20.80;89.20;;;;;;5035961;28;19925;-73
2022/09/24 07:04:16;;;;;;;;;;;20.80;89.20;;;;;;5035903;28;19983;-73
2022/09/24 07:09:28;;;;;;;;;;;20.80;89.20;;;;;;5035648;28;19935;-74
2022/09/24 07:11:55;;;;;;;;;;;20.70;89.00;;;;;;5036313;28;19932;-74
2022/09/24 07:14:22;;;;;;;;;;;20.80;89.10;;;;;;5035842;28;20399;-74
2022/09/24 07:16:49;;;;;;;;;;;20.80;89.30;;;;;;5035343;28;20012;-74
2022/09/24 07:19:15;;;;;;;;;;;20.80;89.40;;;;;;5035536;28;20015;-74
2022/09/24 07:21:43;;;;;;;;;;;20.80;89.50;;;;;;5035847;28;20028;-76
2022/09/24 07:24:10;;;;;;;;;;;20.80;89.70;;;;;;5035508;28;19929;-75
2022/09/24 07:26:36;;;;;;;;;;;20.80;90.00;;;;;;5035430;28;19979;-75
2022/09/24 07:29:03;;;;;;;;;;;20.80;90.10;;;;;;5034697;28;20020;-74
2022/09/24 07:31:30;;;;;;;;;;;20.90;90.20;;;;;;5035082;28;20312;-74
2022/09/24 07:33:57;;;;;;;;;;;20.90;90.40;;;;;;5035303;28;19928;-75
2022/09/24 07:36:23;;;;;;;;;;;20.90;90.50;;;;;;5035217;28;19925;-74
2022/09/24 07:38:51;;;;;;;;;;;21.00;90.60;;;;;;5035169;28;20061;-74
2022/09/24 07:41:19;;;;;;;;;;;21.00;90.80;;;;;;5035130;28;19925;-75
2022/09/24 07:43:46;;;;;;;;;;;21.00;90.80;;;;;;5037156;28;20012;-75
2022/09/24 07:46:13;;;;;;;;;;;21.00;90.80;;;;;;5037547;28;19925;-75
2022/09/24 07:48:40;;;;;;;;;;;21.10;90.90;;;;;;5037535;28;19925;-76
2022/09/24 07:51:13;;;;;;;;;;;21.00;90.80;;;;;;5037108;28;20007;-75
2022/09/24 07:53:41;;;;;;;;;;;21.10;90.90;;;;;;5037357;28;19925;-76
2022/09/24 07:56:09;;;;;;;;;;;21.10;90.90;;;;;;5037085;28;19976;-75
2022/09/24 07:58:36;;;;;;;;;;;21.10;90.90;;;;;;5037389;28;19925;-75
2022/09/24 08:01:03;;;;;;;;;;;21.10;91.00;;;;;;5034777;28;19925;-75
2022/09/24 08:03:30;;;;;;;;;;;21.10;91.10;;;;;;5035900;28;19925;-77
2022/09/24 08:05:58;;;;;;;;;;;21.10;91.20;;;;;;5035590;28;20365;-77
2022/09/24 08:08:25;;;;;;;;;;;21.10;91.20;;;;;;5036453;28;20462;-77
2022/09/24 08:10:52;;;;;;;;;;;21.10;91.30;;;;;;5036445;28;20027;-76
2022/09/24 08:13:20;;;;;;;;;;;21.10;91.30;;;;;;5034628;28;20005;-76
2022/09/24 08:15:46;;;;;;;;;;;21.10;91.30;;;;;;5034598;28;19932;-76
2022/09/24 08:18:13;;;;;;;;;;;21.10;91.40;;;;;;5040490;28;20007;-75
2022/09/24 08:20:40;;;;;;;;;;;21.10;91.40;;;;;;5040507;28;20292;-74
2022/09/24 08:23:09;;;;;;;;;;;21.10;91.40;;;;;;5041613;28;19933;-74
2022/09/24 08:25:36;;;;;;;;;;;21.20;91.50;;;;;;5041624;28;19925;-72
2022/09/24 08:28:03;;;;;;;;;;;21.20;91.50;;;;;;5041424;28;19964;-71
2022/09/24 08:30:32;;;;;;;;;;;21.20;91.60;;;;;;5041395;28;20011;-74
2022/09/24 08:32:59;;;;;;;;;;;21.20;91.70;;;;;;5041828;28;19992;-72
2022/09/24 08:35:26;;;;;;;;;;;21.20;91.70;;;;;;5039776;28;19968;-72
2022/09/24 08:37:53;;;;;;;;;;;21.20;91.80;;;;;;5041014;28;19925;-71
2022/09/24 08:40:22;;;;;;;;;;;21.20;91.80;;;;;;5040552;28;20023;-71
2022/09/24 08:42:51;;;;;;;;;;;21.20;91.80;;;;;;5041164;28;20016;-72
2022/09/24 08:48:09;;;;;;;;;;;21.30;92.00;;;;;;5036726;28;20289;-71
2022/09/24 08:50:38;;;;;;;;;;;21.20;91.90;;;;;;5039257;28;19925;-70
2022/09/24 08:53:13;;;;;;;;;;;21.20;91.90;;;;;;5040560;28;19925;-70
2022/09/24 08:55:42;;;;;;;;;;;21.20;91.80;;;;;;5041174;28;20016;-70
2022/09/24 08:58:18;;;;;;;;;;;21.20;91.80;;;;;;5040778;28;19925;-73
2022/09/24 09:00:48;;;;;;;;;;;21.20;91.80;;;;;;5041200;28;19932;-72
2022/09/24 09:03:24;;;;;;;;;;;21.20;91.90;;;;;;5041019;28;19932;-73
2022/09/24 09:05:54;;;;;;;;;;;21.20;91.90;;;;;;5041179;28;20377;-72
2022/09/24 09:08:25;;;;;;;;;;;21.20;92.00;;;;;;5041064;28;19932;-75
2022/09/24 09:10:55;;;;;;;;;;;21.20;92.00;;;;;;5041850;28;20384;-75
2022/09/24 09:13:25;;;;;;;;;;;21.30;92.00;;;;;;5042443;28;19925;-76
2022/09/24 09:15:57;;;;;;;;;;;21.20;91.90;;;;;;5043229;28;19925;-78
2022/09/24 09:18:29;;;;;;;;;;;21.30;91.90;;;;;;5041363;28;19940;-77
2022/09/24 09:21:04;;;;;;;;;;;21.20;91.90;;;;;;5041892;28;19931;-75
2022/09/24 09:23:35;;;;;;;;;;;21.20;91.90;;;;;;5042973;28;20396;-75
2022/09/24 09:26:05;;;;;;;;;;;21.20;91.80;;;;;;5042110;28;19925;-76
2022/09/24 09:28:33;;;;;;;;;;;21.20;91.80;;;;;;5040490;28;19925;-77
2022/09/24 09:31:05;;;;;;;;;;;21.20;91.80;;;;;;5040716;28;19932;-75
2022/09/24 09:33:45;;;;;;;;;;;21.20;91.90;;;;;;5042358;28;19956;-76
2022/09/24 09:36:19;;;;;;;;;;;21.20;91.80;;;;;;5037525;28;19988;-75
2022/09/24 09:38:49;;;;;;;;;;;21.20;91.90;;;;;;5036445;28;19925;-75
2022/09/24 09:41:19;;;;;;;;;;;21.20;91.90;;;;;;5035876;28;20261;-76
2022/09/24 09:43:46;;;;;;;;;;;21.20;91.90;;;;;;5034680;28;19925;-76
2022/09/24 09:46:14;;;;;;;;;;;21.20;92.00;;;;;;5033480;28;19925;-76
2022/09/24 09:48:44;;;;;;;;;;;21.20;92.10;;;;;;5033856;28;19979;-76
2022/09/24 09:51:15;;;;;;;;;;;21.20;92.20;;;;;;5039268;28;19932;-76
2022/09/24 09:53:53;;;;;;;;;;;21.20;92.30;;;;;;5038825;28;20384;-76
2022/09/24 09:56:22;;;;;;;;;;;21.20;92.30;;;;;;5036848;28;19932;-75
2022/09/24 09:58:54;;;;;;;;;;;21.20;92.40;;;;;;5037345;28;19925;-75
2022/09/24 10:01:31;;;;;;;;;;;21.20;92.50;;;;;;5039140;28;19925;-74
2022/09/24 10:04:01;;;;;;;;;;;21.30;92.70;;;;;;5039092;28;19933;-74
2022/09/24 10:06:30;;;;;;;;;;;21.30;92.70;;;;;;5039319;28;19980;-77
2022/09/24 10:09:06;;;;;;;;;;;21.30;92.70;;;;;;5039370;28;19980;-75
2022/09/24 10:11:33;;;;;;;;;;;21.30;92.80;;;;;;5039159;28;19929;-75
2022/09/24 10:14:03;;;;;;;;;;;21.30;92.80;;;;;;5038751;28;19925;-76
2022/09/24 10:16:30;;;;;;;;;;;21.30;92.90;;;;;;5038552;28;19925;-74
2022/09/24 10:18:56;;;;;;;;;;;21.30;93.00;;;;;;5039051;28;19924;-77
2022/09/24 10:21:31;;;;;;;;;;;21.30;93.00;;;;;;5038609;28;19931;-75
2022/09/24 10:24:00;;;;;;;;;;;21.30;93.10;;;;;;5038686;28;19929;-74
2022/09/24 10:26:33;;;;;;;;;;;21.30;93.10;;;;;;5038871;28;19925;-73
2022/09/24 10:31:46;;;;;;;;;;;21.30;93.50;;;;;;5038170;28;20300;-74
2022/09/24 10:34:20;;;;;;;;;;;21.30;93.50;;;;;;5037810;28;20355;-77
2022/09/24 10:36:51;;;;;;;;;;;21.30;93.50;;;;;;5037668;28;20012;-75
2022/09/24 10:39:18;;;;;;;;;;;21.30;93.50;;;;;;5037145;28;19937;-75
2022/09/24 10:41:48;;;;;;;;;;;21.30;93.50;;;;;;5036918;28;20380;-75
2022/09/24 10:44:16;;;;;;;;;;;21.30;93.50;;;;;;5037187;28;19932;-74
2022/09/24 10:46:50;;;;;;;;;;;21.40;93.50;;;;;;5038172;28;19925;-74
2022/09/24 10:49:26;;;;;;;;;;;21.30;93.50;;;;;;5037967;28;19963;-75
2022/09/24 10:51:59;;;;;;;;;;;21.30;93.50;;;;;;5036162;28;19991;-76
2022/09/24 10:54:35;;;;;;;;;;;21.30;93.50;;;;;;5036189;28;20025;-76
2022/09/24 10:57:07;;;;;;;;;;;21.30;93.50;;;;;;5035602;28;20027;-76
2022/09/24 10:59:41;;;;;;;;;;;21.40;93.60;;;;;;5035682;28;20296;-77
2022/09/24 11:02:21;;;;;;;;;;;21.30;93.60;;;;;;5036546;28;19929;-76
2022/09/24 11:04:50;;;;;;;;;;;21.30;93.60;;;;;;5037995;28;20411;-75
2022/09/24 11:07:41;;;;;;;;;;;21.30;93.60;;;;;;5037862;28;19925;-76
2022/09/24 11:10:16;;;;;;;;;;;21.30;93.60;;;;;;5037255;28;20016;-77
2022/09/24 11:12:49;;;;;;;;;;;21.30;93.60;;;;;;5037066;28;20011;-78
2022/09/24 11:15:24;;;;;;;;;;;21.30;93.50;;;;;;5036769;28;20395;-78
2022/09/24 11:17:59;;;;;;;;;;;21.40;93.50;;;;;;5037145;28;19932;-75
2022/09/24 11:20:35;;;;;;;;;;;21.30;93.50;;;;;;5036582;28;19925;-76
2022/09/24 11:23:17;;;;;;;;;;;21.40;93.50;;;;;;5037429;28;19925;-75
2022/09/24 11:25:50;;;;;;;;;;;21.40;93.50;;;;;;5035686;28;20028;-77
2022/09/24 11:28:38;;;;;;;;;;;21.30;93.50;;;;;;5035225;28;19925;-76
2022/09/24 11:31:08;;;;;;;;;;;21.40;93.50;;;;;;5035522;28;19931;-76
2022/09/24 11:33:44;;;;;;;;;;;21.30;93.50;;;;;;5037121;28;20381;-76
2022/09/24 11:36:26;;;;;;;;;;;21.40;93.50;;;;;;5036676;28;19925;-77
2022/09/24 11:39:00;;;;;;;;;;;21.30;93.50;;;;;;5037107;28;19988;-74
2022/09/24 11:41:33;;;;;;;;;;;21.30;93.60;;;;;;5036826;28;19932;-74
2022/09/24 11:44:12;;;;;;;;;;;21.30;93.50;;;;;;5037038;28;20015;-75
2022/09/24 11:46:46;;;;;;;;;;;21.30;93.50;;;;;;5035355;28;19929;-76
2022/09/24 11:49:18;;;;;;;;;;;21.40;93.50;;;;;;5035120;28;19925;-76
2022/09/24 11:51:51;;;;;;;;;;;21.40;93.50;;;;;;5035081;28;19926;-76
2022/09/24 11:54:21;;;;;;;;;;;21.40;93.50;;;;;;5035013;28;20339;-76
2022/09/24 11:56:51;;;;;;;;;;;21.40;93.50;;;;;;5034577;28;19941;-76
2022/09/24 11:59:22;;;;;;;;;;;21.40;93.50;;;;;;5034930;28;20018;-76
2022/09/24 12:01:53;;;;;;;;;;;21.40;93.50;;;;;;5034825;28;19935;-76
2022/09/24 12:04:23;;;;;;;;;;;21.30;93.40;;;;;;5034801;28;19925;-76
2022/09/24 12:06:54;;;;;;;;;;;21.30;93.40;;;;;;5035242;28;19937;-76
2022/09/24 12:09:23;;;;;;;;;;;21.40;93.30;;;;;;5034747;28;20019;-76
2022/09/24 12:11:53;;;;;;;;;;;21.30;93.30;;;;;;5034363;28;20356;-76
2022/09/24 12:14:22;;;;;;;;;;;21.30;93.20;;;;;;5034543;28;19940;-76
2022/09/24 12:16:52;;;;;;;;;;;21.30;93.20;;;;;;5034516;28;20015;-76
2022/09/24 12:19:22;;;;;;;;;;;21.30;93.10;;;;;;5034320;28;19928;-77
2022/09/24 12:21:50;;;;;;;;;;;21.30;93.10;;;;;;5034431;28;19935;-77
2022/09/24 12:24:18;;;;;;;;;;;21.30;93.00;;;;;;5034143;28;20299;-77
2022/09/24 12:26:45;;;;;;;;;;;21.30;93.00;;;;;;5034735;28;19932;-77
2022/09/24 12:35:02;;;;;;;;;;;21.30;92.90;;;;;;5034580;28;19928;-76
2022/09/24 12:37:31;;;;;;;;;;;21.20;92.80;;;;;;5034344;28;19929;-76
2022/09/24 12:40:00;;;;;;;;;;;21.20;92.80;;;;;;5034261;28;19925;-76
2022/09/24 12:42:30;;;;;;;;;;;21.20;92.70;;;;;;5033985;28;20381;-76
2022/09/24 12:44:59;;;;;;;;;;;21.20;92.70;;;;;;5034212;28;19972;-76
2022/09/24 12:47:27;;;;;;;;;;;21.20;92.70;;;;;;5034159;28;19925;-76
2022/09/24 12:49:54;;;;;;;;;;;21.20;92.60;;;;;;5034945;28;20460;-76
2022/09/24 12:52:26;;;;;;;;;;;21.20;92.60;;;;;;5034087;28;19925;-76
2022/09/24 12:55:01;;;;;;;;;;;21.20;92.60;;;;;;5034053;28;19972;-76
2022/09/24 12:57:29;;;;;;;;;;;21.20;92.50;;;;;;5034082;28;19976;-76
2022/09/24 12:59:57;;;;;;;;;;;21.20;92.50;;;;;;5033702;28;19931;-76
2022/09/24 13:02:25;;;;;;;;;;;21.20;92.50;;;;;;5033613;28;19925;-76
2022/09/24 13:05:10;;;;;;;;;;;21.20;92.40;;;;;;5033939;28;20365;-76
2022/09/24 13:07:39;;;;;;;;;;;21.20;92.40;;;;;;5033980;28;19925;-76
2022/09/24 13:10:11;;;;;;;;;;;21.20;92.40;;;;;;5033859;28;19925;-76
2022/09/24 13:12:38;;;;;;;;;;;21.20;92.30;;;;;;5033550;28;19932;-76
2022/09/24 13:15:06;;;;;;;;;;;21.20;92.30;;;;;;5033747;28;19925;-76
2022/09/24 13:17:37;;;;;;;;;;;21.20;92.30;;;;;;5034074;28;20024;-76
2022/09/24 13:20:05;;;;;;;;;;;21.20;92.30;;;;;;5034068;28;19925;-76
2022/09/24 13:22:33;;;;;;;;;;;21.20;92.30;;;;;;5034906;28;19932;-75
2022/09/24 13:25:20;;;;;;;;;;;21.20;92.40;;;;;;5034807;28;19929;-75
2022/09/24 13:27:56;;;;;;;;;;;21.20;92.40;;;;;;5039541;28;20004;-74
2022/09/24 13:30:24;;;;;;;;;;;21.20;92.50;;;;;;5039290;28;19947;-74
2022/09/24 13:32:54;;;;;;;;;;;21.20;92.50;;;;;;5039860;28;20384;-74
2022/09/24 13:35:24;;;;;;;;;;;21.20;92.50;;;;;;5040026;28;20279;-74
2022/09/24 13:37:52;;;;;;;;;;;21.20;92.50;;;;;;5043744;28;19948;-74
2022/09/24 13:40:21;;;;;;;;;;;21.20;92.50;;;;;;5044114;28;19932;-76
2022/09/24 13:42:51;;;;;;;;;;;21.20;92.60;;;;;;5045136;28;19925;-74
2022/09/24 13:45:20;;;;;;;;;;;21.20;92.60;;;;;;5044371;28;19932;-75
2022/09/24 13:47:48;;;;;;;;;;;21.30;92.70;;;;;;5045115;28;20432;-75
2022/09/24 13:50:20;;;;;;;;;;;21.20;92.70;;;;;;5043000;28;19968;-75
2022/09/24 13:52:49;;;;;;;;;;;21.20;92.70;;;;;;5040460;28;19931;-74
2022/09/24 13:55:18;;;;;;;;;;;21.20;92.70;;;;;;5039266;28;19935;-75
2022/09/24 13:57:46;;;;;;;;;;;21.20;92.80;;;;;;5040609;28;20293;-77
2022/09/24 14:00:15;;;;;;;;;;;21.20;92.80;;;;;;5039067;28;19925;-77
2022/09/24 14:02:43;;;;;;;;;;;21.30;92.90;;;;;;5039713;28;19971;-76
2022/09/24 14:05:15;;;;;;;;;;;21.30;92.90;;;;;;5039857;28;20395;-77
2022/09/24 14:07:43;;;;;;;;;;;21.20;93.00;;;;;;5040326;28;20028;-76
2022/09/24 14:10:13;;;;;;;;;;;21.30;93.10;;;;;;5039808;28;19929;-76
2022/09/24 14:12:39;;;;;;;;;;;21.30;93.10;;;;;;5037951;28;20044;-76
2022/09/24 14:15:12;;;;;;;;;;;21.30;93.20;;;;;;5036529;28;20468;-76
2022/09/24 14:17:39;;;;;;;;;;;21.30;93.20;;;;;;5036859;28;19925;-76
2022/09/24 14:20:12;;;;;;;;;;;21.30;93.30;;;;;;5036994;28;20016;-76
2022/09/24 14:22:40;;;;;;;;;;;21.30;93.30;;;;;;5036574;28;19925;-76
2022/09/24 14:25:11;;;;;;;;;;;21.30;93.40;;;;;;5036581;28;19925;-76
2022/09/24 14:27:43;;;;;;;;;;;21.30;93.40;;;;;;5036663;28;19991;-76
2022/09/24 14:30:17;;;;;;;;;;;21.30;93.40;;;;;;5036861;28;19933;-76
2022/09/24 14:32:44;;;;;;;;;;;21.30;93.50;;;;;;5036553;28;19925;-76
2022/09/24 14:35:16;;;;;;;;;;;21.30;93.50;;;;;;5036108;28;19932;-76
2022/09/24 14:37:47;;;;;;;;;;;21.30;93.50;;;;;;5035127;28;19932;-76
2022/09/24 14:40:17;;;;;;;;;;;21.30;93.50;;;;;;5036123;28;19931;-77
2022/09/24 14:42:45;;;;;;;;;;;21.30;93.50;;;;;;5036359;28;19925;-78
2022/09/24 14:45:18;;;;;;;;;;;21.30;93.50;;;;;;5036251;28;19925;-78
2022/09/24 14:47:44;;;;;;;;;;;21.30;93.50;;;;;;5036351;28;20296;-77
2022/09/24 14:50:26;;;;;;;;;;;21.30;93.50;;;;;;5036177;28;20299;-78
2022/09/24 14:52:55;;;;;;;;;;;21.30;93.50;;;;;;5035864;28;19925;-77
2022/09/24 14:55:35;;;;;;;;;;;21.30;93.50;;;;;;5035971;28;19968;-78
2022/09/24 14:58:02;;;;;;;;;;;21.30;93.50;;;;;;5036163;28;20017;-78
2022/09/24 15:00:30;;;;;;;;;;;21.30;93.50;;;;;;5037117;28;19932;-78
2022/09/24 15:02:58;;;;;;;;;;;21.30;93.50;;;;;;5035908;28;20012;-78
2022/09/24 15:05:26;;;;;;;;;;;21.30;93.50;;;;;;5035559;28;19932;-77
2022/09/24 15:07:54;;;;;;;;;;;21.30;93.50;;;;;;5035902;28;19925;-77
2022/09/24 15:10:22;;;;;;;;;;;21.30;93.50;;;;;;5035597;28;19925;-77
2022/09/24 15:12:51;;;;;;;;;;;21.30;93.50;;;;;;5036035;28;19929;-78
2022/09/24 15:15:27;;;;;;;;;;;21.30;93.50;;;;;;5035899;28;19932;-77
2022/09/24 15:17:53;;;;;;;;;;;21.30;93.50;;;;;;5035982;28;19932;-77
2022/09/24 15:20:20;;;;;;;;;;;21.30;93.50;;;;;;5035809;28;20012;-77
2022/09/24 15:22:47;;;;;;;;;;;21.30;93.50;;;;;;5035658;28;19931;-77
2022/09/24 15:25:14;;;;;;;;;;;21.30;93.60;;;;;;5035137;28;20383;-77
2022/09/24 15:27:41;;;;;;;;;;;21.30;93.60;;;;;;5035264;28;20264;-77
2022/09/24 15:30:13;;;;;;;;;;;21.30;93.70;;;;;;5036070;28;19933;-77
2022/09/24 15:32:39;;;;;;;;;;;21.30;93.80;;;;;;5036493;28;20023;-78
2022/09/24 15:35:08;;;;;;;;;;;21.30;93.80;;;;;;5036168;28;19983;-78
2022/09/24 15:37:37;;;;;;;;;;;21.30;93.90;;;;;;5036077;28;20016;-77
2022/09/24 15:40:06;;;;;;;;;;;21.40;94.00;;;;;;5035615;28;20395;-77
2022/09/24 15:42:33;;;;;;;;;;;21.40;94.10;;;;;;5035389;28;20024;-77
2022/09/24 15:44:59;;;;;;;;;;;21.40;94.10;;;;;;5035402;28;20096;-77
2022/09/24 15:47:27;;;;;;;;;;;21.40;94.10;;;;;;5035120;28;19975;-77
2022/09/24 15:49:54;;;;;;;;;;;21.40;94.20;;;;;;5034859;28;20333;-77
2022/09/24 15:52:23;;;;;;;;;;;21.40;94.20;;;;;;5035106;28;20012;-77
2022/09/24 15:54:50;;;;;;;;;;;21.40;94.30;;;;;;5035399;28;20153;-78
2022/09/24 15:57:16;;;;;;;;;;;21.40;94.30;;;;;;5035175;28;19925;-77
2022/09/24 15:59:43;;;;;;;;;;;21.40;94.40;;;;;;5035466;28;19969;-77
2022/09/24 16:02:15;;;;;;;;;;;21.40;94.40;;;;;;5035823;28;19987;-78
2022/09/24 16:04:43;;;;;;;;;;;21.50;94.50;;;;;;5035658;28;20031;-77
2022/09/24 16:07:09;;;;;;;;;;;21.50;94.50;;;;;;5034636;28;19958;-78
2022/09/24 16:09:36;;;;;;;;;;;21.50;94.50;;;;;;5034794;28;20008;-77
2022/09/24 16:12:03;;;;;;;;;;;21.50;94.60;;;;;;5034731;28;20296;-77
2022/09/24 16:14:30;;;;;;;;;;;21.50;94.60;;;;;;5034889;28;19987;-78
2022/09/24 16:16:56;;;;;;;;;;;21.50;94.60;;;;;;5034783;28;19956;-77
2022/09/24 16:19:23;;;;;;;;;;;21.50;94.60;;;;;;5034740;28;19931;-78
2022/09/24 16:21:52;;;;;;;;;;;21.50;94.60;;;;;;5035468;28;19929;-78
2022/09/24 16:24:18;;;;;;;;;;;21.50;94.70;;;;;;5035513;28;19925;-79
2022/09/24 16:26:47;;;;;;;;;;;21.50;94.70;;;;;;5034357;28;20405;-78
2022/09/24 16:29:13;;;;;;;;;;;21.50;94.80;;;;;;5034927;28;19925;-78
2022/09/24 16:31:40;;;;;;;;;;;21.50;94.80;;;;;;5034369;28;19979;-78
2022/09/24 16:34:07;;;;;;;;;;;21.60;94.90;;;;;;5034791;28;19925;-78
2022/09/24 16:36:33;;;;;;;;;;;21.60;95.00;;;;;;5034173;28;19929;-77
2022/09/24 16:39:01;;;;;;;;;;;21.60;95.10;;;;;;5034202;28;19929;-77
2022/09/24 16:41:33;;;;;;;;;;;21.60;95.10;;;;;;5034231;28;20007;-77
2022/09/24 16:44:00;;;;;;;;;;;21.60;95.10;;;;;;5034248;28;19933;-78
2022/09/24 16:46:27;;;;;;;;;;;21.60;95.10;;;;;;5034407;28;19947;-78
2022/09/24 16:48:53;;;;;;;;;;;21.60;95.20;;;;;;5035188;28;19925;-77
2022/09/24 16:51:20;;;;;;;;;;;21.60;95.10;;;;;;5036494;28;20020;-78
2022/09/24 16:53:47;;;;;;;;;;;21.60;95.10;;;;;;5036637;28;20420;-80
2022/09/24 16:56:16;;;;;;;;;;;21.60;95.00;;;;;;5035346;28;20420;-78
2022/09/24 16:58:43;;;;;;;;;;;21.60;95.00;;;;;;5035568;28;20340;-78
2022/09/24 17:01:11;;;;;;;;;;;21.60;94.90;;;;;;5034263;28;20027;-79
2022/09/24 17:03:37;;;;;;;;;;;21.60;94.90;;;;;;5034976;28;19931;-79
2022/09/24 17:06:04;;;;;;;;;;;21.60;94.80;;;;;;5035323;28;20024;-78
2022/09/24 17:11:12;;;;;;;;;;;21.50;94.70;;;;;;5038594;28;19971;-78
2022/09/24 17:13:40;;;;;;;;;;;21.50;94.60;;;;;;5038419;28;20307;-79
2022/09/24 17:16:07;;;;;;;;;;;21.50;94.60;;;;;;5036481;28;19929;-79
2022/09/24 17:18:33;;;;;;;;;;;21.50;94.60;;;;;;5038805;28;19929;-80
2022/09/24 17:21:00;;;;;;;;;;;21.50;94.60;;;;;;5037869;28;20004;-79
2022/09/24 17:23:27;;;;;;;;;;;21.50;94.50;;;;;;5038151;28;19932;-79
2022/09/24 17:26:00;;;;;;;;;;;21.50;94.50;;;;;;5038368;28;20443;-78
2022/09/24 17:28:27;;;;;;;;;;;21.50;94.50;;;;;;5039035;28;20028;-78
2022/09/24 17:30:56;;;;;;;;;;;21.50;94.60;;;;;;5038426;28;20012;-79
2022/09/24 17:33:22;;;;;;;;;;;21.50;94.50;;;;;;5035276;28;19975;-79
2022/09/24 17:35:53;;;;;;;;;;;21.50;94.60;;;;;;5035687;28;19976;-78
2022/09/24 17:38:19;;;;;;;;;;;21.50;94.60;;;;;;5037189;28;20442;-80
2022/09/24 17:40:52;;;;;;;;;;;21.50;94.60;;;;;;5038495;28;20396;-79
2022/09/24 17:43:19;;;;;;;;;;;21.50;94.60;;;;;;5038435;28;19931;-79
2022/09/24 17:45:54;;;;;;;;;;;21.50;94.70;;;;;;5037352;28;19975;-78
2022/09/24 17:48:22;;;;;;;;;;;21.50;94.70;;;;;;5037823;28;20385;-78
2022/09/24 17:50:53;;;;;;;;;;;21.50;94.70;;;;;;5038650;28;20012;-78
2022/09/24 17:53:19;;;;;;;;;;;21.40;94.70;;;;;;5037816;28;19925;-78
2022/09/24 17:55:47;;;;;;;;;;;21.40;94.70;;;;;;5036690;28;19925;-77
2022/09/24 17:58:14;;;;;;;;;;;21.40;94.70;;;;;;5034737;28;20008;-77
2022/09/24 18:00:40;;;;;;;;;;;21.40;94.80;;;;;;5034148;28;19932;-77
2022/09/24 18:03:07;;;;;;;;;;;21.40;94.80;;;;;;5033701;28;19976;-79
2022/09/24 18:05:35;;;;;;;;;;;21.40;94.80;;;;;;5033941;28;19932;-78
2022/09/24 18:08:02;;;;;;;;;;;21.40;95.00;;;;;;5034093;28;20400;-78
2022/09/24 18:10:28;;;;;;;;;;;21.40;95.20;;;;;;5034377;28;20024;-77
2022/09/24 18:12:55;;;;;;;;;;;21.50;95.50;;;;;;5036640;28;19924;-77
2022/09/24 18:15:22;;;;;;;;;;;21.50;95.80;;;;;;5038518;28;20040;-77
2022/09/24 18:17:48;;;;;;;;;;;21.60;96.10;;;;;;5036850;28;19979;-77
2022/09/24 18:20:15;;;;;;;;;;;21.60;96.30;;;;;;5036922;28;20296;-77
2022/09/24 18:22:43;;;;;;;;;;;21.70;96.60;;;;;;5036433;28;20387;-77
2022/09/24 18:25:10;;;;;;;;;;;21.70;96.90;;;;;;5036657;28;19975;-75
2022/09/24 18:27:37;;;;;;;;;;;21.80;97.10;;;;;;5037676;28;20112;-76
2022/09/24 18:30:06;;;;;;;;;;;21.80;97.30;;;;;;5037734;28;19932;-76
2022/09/24 18:32:33;;;;;;;;;;;21.90;97.50;;;;;;5037833;28;19933;-77
2022/09/24 18:35:00;;;;;;;;;;;21.90;97.60;;;;;;5036747;28;20442;-76
2022/09/24 18:37:27;;;;;;;;;;;21.90;97.70;;;;;;5037442;28;19925;-77
2022/09/24 18:39:57;;;;;;;;;;;22.00;97.80;;;;;;5038676;28;19984;-78
2022/09/24 18:42:24;;;;;;;;;;;22.00;97.80;;;;;;5036891;28;20024;-77
2022/09/24 18:44:51;;;;;;;;;;;22.00;97.80;;;;;;5037742;28;20023;-78
2022/09/24 18:47:19;;;;;;;;;;;22.00;97.80;;;;;;5036875;28;20029;-77
2022/09/24 18:49:46;;;;;;;;;;;22.00;97.70;;;;;;5037157;28;20408;-77
2022/09/24 18:52:13;;;;;;;;;;;22.00;97.70;;;;;;5036271;28;19929;-76
2022/09/24 18:54:39;;;;;;;;;;;22.00;97.60;;;;;;5036283;28;19948;-76
2022/09/24 18:57:07;;;;;;;;;;;22.10;97.90;;;;;;5035893;28;20407;-75
2022/09/24 18:59:43;;;;;;;;;;;22.10;97.50;;;;;;5036304;28;20265;-75
2022/09/24 19:02:10;;;;;;;;;;;22.00;97.40;;;;;;5036171;28;19932;-76
2022/09/24 19:04:36;;;;;;;;;;;22.00;97.40;;;;;;5035929;28;19925;-77
2022/09/24 19:07:04;;;;;;;;;;;22.00;97.30;;;;;;5035671;28;20380;-77
2022/09/24 19:09:31;;;;;;;;;;;22.10;97.30;;;;;;5036163;28;19925;-77
2022/09/24 19:11:57;;;;;;;;;;;22.00;97.10;;;;;;5036389;28;19925;-78
2022/09/24 19:14:25;;;;;;;;;;;22.00;97.00;;;;;;5041757;28;19969;-78
2022/09/24 19:16:55;;;;;;;;;;;22.00;96.90;;;;;;5040339;28;20015;-79
2022/09/24 19:19:23;;;;;;;;;;;22.00;96.80;;;;;;5040984;28;20545;-79
2022/09/24 19:21:50;;;;;;;;;;;22.00;96.60;;;;;;5040562;28;19926;-78
2022/09/24 19:24:17;;;;;;;;;;;22.00;96.50;;;;;;5036491;28;19925;-77
2022/09/24 19:26:44;;;;;;;;;;;22.00;96.30;;;;;;5036235;28;19925;-78
2022/09/24 19:29:11;;;;;;;;;;;21.90;96.20;;;;;;5037953;28;19975;-78
2022/09/24 19:31:40;;;;;;;;;;;21.90;96.20;;;;;;5037914;28;19931;-78
2022/09/24 19:34:08;;;;;;;;;;;21.90;96.20;;;;;;5038688;28;19983;-77
2022/09/24 19:36:40;;;;;;;;;;;21.90;96.10;;;;;;5038441;28;19925;-79
2022/09/24 19:39:07;;;;;;;;;;;21.90;96.00;;;;;;5035252;28;19994;-77
2022/09/24 19:41:33;;;;;;;;;;;21.90;95.90;;;;;;5034904;28;20389;-76
2022/09/24 19:44:01;;;;;;;;;;;21.80;95.80;;;;;;5035097;28;19925;-76
2022/09/24 19:46:30;;;;;;;;;;;21.80;95.80;;;;;;5034808;28;20442;-76
2022/09/24 19:48:58;;;;;;;;;;;21.80;95.70;;;;;;5035144;28;19925;-76
2022/09/24 19:51:26;;;;;;;;;;;21.80;95.70;;;;;;5035051;28;19931;-76
2022/09/24 19:53:54;;;;;;;;;;;21.80;96.00;;;;;;5035064;28;19932;-76
2022/09/24 19:56:23;;;;;;;;;;;21.80;95.60;;;;;;5034479;28;20464;-76
2022/09/24 19:58:51;;;;;;;;;;;21.80;95.60;;;;;;5034906;28;19972;-76
2022/09/24 20:01:18;;;;;;;;;;;21.70;95.50;;;;;;5035047;28;19972;-78
2022/09/24 20:03:45;;;;;;;;;;;21.80;95.60;;;;;;5034841;28;20274;-78
2022/09/24 20:06:14;;;;;;;;;;;21.70;95.50;;;;;;5034768;28;19931;-77
2022/09/24 20:08:41;;;;;;;;;;;21.70;95.50;;;;;;5035422;28;20049;-77
2022/09/24 20:11:09;;;;;;;;;;;21.70;95.50;;;;;;5035589;28;19937;-77
2022/09/24 20:13:36;;;;;;;;;;;21.70;95.50;;;;;;5035706;28;20019;-77
2022/09/24 20:16:03;;;;;;;;;;;21.70;95.40;;;;;;5035448;28;19931;-77
2022/09/24 20:18:33;;;;;;;;;;;21.70;95.40;;;;;;5034448;28;20357;-77
2022/09/24 20:21:01;;;;;;;;;;;21.70;95.40;;;;;;5034838;28;19926;-77
2022/09/24 20:23:29;;;;;;;;;;;21.70;95.40;;;;;;5034739;28;19933;-77